Time;durP1;ratioP1;P1;durP2;ratioP2;P2;SDS_P1;SDS_P2;PMS_P1;PMS_P2;Temp;Humidity;BMP_temperature;BMP_pressure;BME280_temperature;BME280_humidity;BME280_pressure;Samples;Min_cycle;Max_cycle;Signal;HPM_P1;HPM_P2
2023/08/15 00:01:58;;;;;;;13.27;10.57;;;24.50;99.90;;;;;;4845347;29;20545;-95
2023/08/15 00:04:24;;;;;;;11.50;10.30;;;24.50;99.90;;;;;;4837965;29;20708;-94
2023/08/15 00:06:50;;;;;;;10.77;9.67;;;24.40;99.90;;;;;;4837982;29;20678;-94
2023/08/15 00:09:16;;;;;;;11.57;10.20;;;24.40;99.90;;;;;;4838796;29;20218;-95
2023/08/15 00:11:41;;;;;;;13.13;9.67;;;24.30;99.90;;;;;;4837744;29;20488;-95
2023/08/15 00:14:07;;;;;;;12.07;9.93;;;24.20;99.90;;;;;;4839057;29;20451;-93
2023/08/15 00:16:33;;;;;;;12.57;11.40;;;24.10;99.90;;;;;;4838823;29;20242;-94
2023/08/15 00:18:59;;;;;;;11.53;10.37;;;24.10;99.90;;;;;;4838876;29;20180;-95
2023/08/15 00:21:24;;;;;;;11.60;10.37;;;24.00;99.90;;;;;;4838725;29;20200;-95
2023/08/15 00:23:50;;;;;;;12.47;10.90;;;23.90;99.90;;;;;;4837376;29;20332;-95
2023/08/15 00:26:16;;;;;;;12.27;11.00;;;23.90;99.90;;;;;;4839046;29;20434;-94
2023/08/15 00:28:43;;;;;;;16.17;12.10;;;23.80;99.90;;;;;;4838640;29;20541;-92
2023/08/15 00:31:09;;;;;;;12.70;11.37;;;23.80;99.90;;;;;;4838965;29;20688;-94
2023/08/15 00:33:34;;;;;;;18.73;12.80;;;23.80;99.90;;;;;;4841610;29;20491;-94
2023/08/15 00:36:00;;;;;;;13.27;11.70;;;23.80;99.90;;;;;;4838047;29;20266;-95
2023/08/15 00:38:26;;;;;;;11.27;10.23;;;23.80;99.90;;;;;;4837680;29;20884;-94
2023/08/15 00:40:51;;;;;;;12.40;11.40;;;23.70;99.90;;;;;;4836679;29;20203;-94
2023/08/15 00:43:18;;;;;;;12.70;11.60;;;23.80;99.90;;;;;;4839242;29;20186;-94
2023/08/15 00:45:44;;;;;;;15.17;11.43;;;23.80;99.90;;;;;;4840940;29;20232;-93
2023/08/15 00:48:11;;;;;;;11.73;10.67;;;23.80;99.90;;;;;;4840099;29;20444;-93
2023/08/15 00:50:43;;;;;;;13.93;12.50;;;23.70;99.90;;;;;;4840880;29;20687;-95
2023/08/15 00:53:10;;;;;;;12.80;11.50;;;23.70;99.90;;;;;;4841018;29;20456;-95
2023/08/15 00:55:37;;;;;;;15.33;12.80;;;23.70;99.90;;;;;;4843810;29;20491;-94
2023/08/15 00:58:03;;;;;;;17.70;12.80;;;23.70;99.90;;;;;;4842361;29;20476;-94
2023/08/15 01:00:29;;;;;;;13.77;12.37;;;23.70;99.90;;;;;;4836240;29;20471;-95
2023/08/15 01:02:55;;;;;;;13.10;11.80;;;23.60;99.90;;;;;;4838347;29;20447;-94
2023/08/15 01:05:21;;;;;;;12.87;11.60;;;23.60;99.90;;;;;;4841258;29;20579;-94
2023/08/15 01:07:47;;;;;;;16.43;12.57;;;23.60;99.90;;;;;;4837889;29;20191;-94
2023/08/15 01:10:13;;;;;;;14.40;13.00;;;23.60;99.90;;;;;;4837030;29;20448;-94
2023/08/15 01:12:38;;;;;;;13.13;11.90;;;23.50;99.90;;;;;;4838048;29;20706;-95
2023/08/15 01:15:12;;;;;;;13.80;11.63;;;23.50;99.90;;;;;;4837148;29;20233;-95
2023/08/15 01:17:45;;;;;;;13.37;12.10;;;23.50;99.90;;;;;;4836397;29;20338;-95
2023/08/15 01:20:15;;;;;;;15.77;12.60;;;23.50;99.90;;;;;;4838729;29;20751;-95
2023/08/15 01:22:46;;;;;;;19.13;11.90;;;23.50;99.90;;;;;;4841534;29;20525;-95
2023/08/15 01:25:12;;;;;;;14.17;11.40;;;23.50;99.90;;;;;;4842349;29;20442;-95
2023/08/15 01:27:38;;;;;;;14.97;12.80;;;23.40;99.90;;;;;;4838065;29;20436;-94
2023/08/15 01:30:04;;;;;;;14.10;12.50;;;23.40;99.90;;;;;;4836482;29;20200;-94
2023/08/15 01:33:28;;;;;;;14.83;12.30;;;23.40;99.90;;;;;;4836898;29;20235;-94
2023/08/15 01:36:03;;;;;;;18.63;12.97;;;23.40;99.90;;;;;;4782817;29;20972;-93
2023/08/15 01:38:44;;;;;;;13.87;12.47;;;23.40;99.90;;;;;;4836695;29;20867;-94
2023/08/15 01:41:14;;;;;;;14.77;13.27;;;23.40;99.90;;;;;;4836845;29;20454;-94
2023/08/15 01:43:42;;;;;;;13.17;11.97;;;23.40;99.90;;;;;;4835936;29;20430;-95
2023/08/15 01:46:08;;;;;;;14.13;12.57;;;23.40;99.90;;;;;;4838386;29;20945;-94
2023/08/15 01:48:42;;;;;;;18.87;13.63;;;23.40;99.90;;;;;;4836239;29;20441;-95
2023/08/15 01:51:08;;;;;;;16.80;12.90;;;23.40;99.90;;;;;;4837782;29;20474;-94
2023/08/15 01:53:36;;;;;;;13.67;12.37;;;23.30;99.90;;;;;;4841299;29;20983;-95
2023/08/15 01:56:02;;;;;;;13.93;12.40;;;23.30;99.90;;;;;;4840880;29;20444;-94
2023/08/15 01:58:27;;;;;;;14.67;13.27;;;23.30;99.90;;;;;;4840341;29;20431;-95
2023/08/15 02:00:53;;;;;;;13.67;12.40;;;23.30;99.90;;;;;;4840740;29;20619;-94
2023/08/15 02:03:19;;;;;;;14.80;13.37;;;23.20;99.90;;;;;;4840233;29;20745;-94
2023/08/15 02:05:44;;;;;;;14.17;12.80;;;23.20;99.90;;;;;;4839584;29;20644;-94
2023/08/15 02:08:10;;;;;;;14.20;12.67;;;23.20;99.90;;;;;;4847637;29;20189;-95
2023/08/15 02:10:36;;;;;;;13.97;12.70;;;23.10;99.90;;;;;;4840452;29;20199;-94
2023/08/15 02:13:02;;;;;;;13.33;12.13;;;23.10;99.90;;;;;;4842726;29;20288;-95
2023/08/15 02:15:27;;;;;;;17.63;12.10;;;23.10;99.90;;;;;;4842626;29;20211;-93
2023/08/15 02:17:53;;;;;;;13.57;12.40;;;23.10;99.90;;;;;;4839507;29;20245;-94
2023/08/15 02:20:19;;;;;;;14.43;12.93;;;23.10;99.90;;;;;;4844133;29;20204;-95
2023/08/15 02:22:45;;;;;;;13.30;12.10;;;23.10;99.90;;;;;;4841244;29;20243;-94
2023/08/15 02:25:10;;;;;;;13.70;12.30;;;23.10;99.90;;;;;;4839996;29;20210;-94
2023/08/15 02:27:36;;;;;;;15.40;13.00;;;23.00;99.90;;;;;;4839721;29;20225;-94
2023/08/15 02:30:04;;;;;;;19.20;14.13;;;23.00;99.90;;;;;;4839800;29;20218;-95
2023/08/15 02:32:30;;;;;;;15.10;12.47;;;23.00;99.90;;;;;;4842021;29;20234;-95
2023/08/15 02:34:56;;;;;;;15.83;13.83;;;23.00;99.90;;;;;;4840875;29;20871;-95
2023/08/15 02:37:22;;;;;;;16.53;12.83;;;23.00;99.90;;;;;;4839622;29;20436;-94
2023/08/15 02:39:47;;;;;;;18.73;13.90;;;23.00;99.90;;;;;;4840840;29;20771;-94
2023/08/15 02:42:13;;;;;;;14.97;12.27;;;23.00;99.90;;;;;;4839724;29;20671;-95
2023/08/15 02:44:39;;;;;;;20.27;13.90;;;22.90;99.90;;;;;;4840824;29;20236;-94
2023/08/15 02:47:05;;;;;;;13.60;12.20;;;22.90;99.90;;;;;;4843770;29;20181;-95
2023/08/15 02:49:30;;;;;;;13.63;11.80;;;22.90;99.90;;;;;;4839895;29;20214;-94
2023/08/15 02:51:56;;;;;;;15.07;13.27;;;22.80;99.90;;;;;;4842296;29;20535;-95
2023/08/15 02:54:22;;;;;;;15.67;12.30;;;22.80;99.90;;;;;;4840649;29;20245;-95
2023/08/15 02:56:47;;;;;;;14.00;12.60;;;22.80;99.90;;;;;;4838988;29;20185;-95
2023/08/15 02:59:13;;;;;;;13.30;12.00;;;22.70;99.90;;;;;;4841130;29;20272;-94
2023/08/15 03:01:39;;;;;;;12.70;11.50;;;22.70;99.90;;;;;;4839823;29;20186;-95
2023/08/15 03:04:08;;;;;;;13.93;12.20;;;22.70;99.90;;;;;;4838878;29;20185;-93
2023/08/15 03:06:35;;;;;;;13.60;11.90;;;22.60;99.90;;;;;;4847921;29;20233;-94
2023/08/15 03:09:01;;;;;;;14.20;12.80;;;22.60;99.90;;;;;;4839600;29;20987;-94
2023/08/15 03:11:29;;;;;;;14.03;11.97;;;22.50;99.90;;;;;;4839469;29;20496;-95
2023/08/15 03:13:54;;;;;;;14.07;12.87;;;22.50;99.90;;;;;;4839202;29;20188;-95
2023/08/15 03:16:21;;;;;;;13.73;11.90;;;22.50;99.90;;;;;;4840660;29;20571;-95
2023/08/15 03:18:47;;;;;;;14.20;12.70;;;22.50;99.90;;;;;;4837954;29;20185;-93
2023/08/15 03:21:13;;;;;;;16.57;12.13;;;22.50;99.90;;;;;;4838322;29;20857;-94
2023/08/15 03:23:38;;;;;;;17.93;13.77;;;22.40;99.90;;;;;;4838175;29;20437;-95
2023/08/15 03:26:05;;;;;;;13.50;12.13;;;22.40;99.90;;;;;;4838639;29;20531;-93
2023/08/15 03:28:32;;;;;;;15.70;12.10;;;22.40;99.90;;;;;;4839824;29;20694;-95
2023/08/15 03:31:06;;;;;;;13.80;12.50;;;22.40;99.90;;;;;;4839081;29;20503;-94
2023/08/15 03:33:33;;;;;;;16.30;12.67;;;22.40;99.90;;;;;;4838075;29;20405;-94
2023/08/15 03:35:58;;;;;;;15.20;12.93;;;22.40;99.90;;;;;;4836904;29;20475;-95
2023/08/15 03:38:24;;;;;;;15.50;14.00;;;22.30;99.90;;;;;;4838930;29;20475;-94
2023/08/15 03:41:04;;;;;;;15.43;13.83;;;22.30;99.90;;;;;;4836657;29;20479;-95
2023/08/15 03:43:31;;;;;;;15.13;13.53;;;22.30;99.90;;;;;;4838496;29;20465;-93
2023/08/15 03:46:03;;;;;;;18.17;14.03;;;22.20;99.90;;;;;;4843463;29;20856;-95
2023/08/15 03:48:31;;;;;;;13.97;12.23;;;22.20;99.90;;;;;;4837805;29;20440;-95
2023/08/15 03:50:58;;;;;;;18.73;14.30;;;22.10;99.90;;;;;;4837364;29;20673;-95
2023/08/15 03:53:24;;;;;;;16.43;13.47;;;22.10;99.90;;;;;;4837923;29;20433;-96
2023/08/15 03:55:52;;;;;;;15.50;13.47;;;22.10;99.90;;;;;;4839307;29;20444;-95
2023/08/15 03:58:19;;;;;;;17.00;13.80;;;22.10;99.90;;;;;;4838174;29;20539;-96
2023/08/15 04:00:46;;;;;;;18.57;14.73;;;22.00;99.90;;;;;;4837696;29;20438;-93
2023/08/15 04:03:11;;;;;;;15.90;14.30;;;22.00;99.90;;;;;;4837567;29;20443;-94
2023/08/15 04:05:37;;;;;;;21.67;15.33;;;22.00;99.90;;;;;;4838945;29;20504;-94
2023/08/15 04:08:03;;;;;;;15.47;13.83;;;22.00;99.90;;;;;;4837214;29;20196;-94
2023/08/15 04:10:30;;;;;;;21.70;14.70;;;22.00;99.90;;;;;;4839438;29;20197;-94
2023/08/15 04:12:56;;;;;;;15.90;13.93;;;22.00;99.90;;;;;;4837809;29;20297;-95
2023/08/15 04:15:22;;;;;;;18.20;14.13;;;22.00;99.90;;;;;;4839041;29;20982;-95
2023/08/15 04:17:48;;;;;;;16.40;14.03;;;22.00;99.90;;;;;;4837961;29;20335;-94
2023/08/15 04:20:13;;;;;;;20.63;15.00;;;22.00;99.90;;;;;;4837642;29;20574;-95
2023/08/15 04:22:40;;;;;;;19.60;14.40;;;22.10;99.90;;;;;;4837529;29;20196;-95
2023/08/15 04:25:09;;;;;;;15.83;14.40;;;22.10;99.90;;;;;;4838706;29;20562;-94
2023/08/15 04:27:38;;;;;;;20.00;14.33;;;22.10;99.90;;;;;;4831024;29;20505;-94
2023/08/15 04:30:05;;;;;;;19.60;16.20;;;22.20;99.90;;;;;;4837312;29;20532;-94
2023/08/15 04:32:31;;;;;;;25.50;15.50;;;22.20;99.90;;;;;;4840334;29;20503;-95
2023/08/15 04:34:57;;;;;;;19.03;14.20;;;22.30;99.90;;;;;;4835213;29;20460;-95
2023/08/15 04:37:22;;;;;;;16.87;13.77;;;22.30;99.90;;;;;;4838794;29;20212;-94
2023/08/15 04:39:48;;;;;;;16.70;13.30;;;22.30;99.90;;;;;;4839349;29;20531;-94
2023/08/15 04:42:14;;;;;;;17.77;14.93;;;22.30;99.90;;;;;;4837355;29;20200;-95
2023/08/15 04:44:40;;;;;;;20.70;16.07;;;22.40;99.90;;;;;;4838280;29;20248;-93
2023/08/15 04:47:06;;;;;;;17.43;15.63;;;22.40;99.90;;;;;;4836441;29;20460;-95
2023/08/15 04:49:33;;;;;;;17.83;15.40;;;22.50;99.90;;;;;;4837055;29;20217;-92
2023/08/15 04:52:00;;;;;;;18.60;14.37;;;22.50;99.90;;;;;;4836130;29;20709;-93
2023/08/15 04:54:26;;;;;;;16.37;14.70;;;22.60;99.90;;;;;;4833210;29;20509;-94
2023/08/15 04:56:51;;;;;;;17.00;15.03;;;22.60;99.90;;;;;;4841421;29;20497;-95
2023/08/15 04:59:18;;;;;;;16.50;13.50;;;22.70;99.90;;;;;;4832791;29;20195;-94
2023/08/15 05:01:44;;;;;;;22.77;14.87;;;22.80;99.90;;;;;;4826401;29;20195;-94
2023/08/15 05:04:10;;;;;;;19.30;15.07;;;22.90;99.90;;;;;;4829004;29;20433;-94
2023/08/15 05:06:36;;;;;;;15.17;13.57;;;22.90;99.90;;;;;;4840206;29;20470;-94
2023/08/15 05:09:01;;;;;;;15.40;13.33;;;22.90;99.90;;;;;;4837167;29;20448;-94
2023/08/15 05:11:27;;;;;;;19.20;14.40;;;23.00;99.90;;;;;;4832048;29;20241;-95
2023/08/15 05:13:53;;;;;;;16.13;13.93;;;23.00;99.90;;;;;;4832202;29;20205;-94
2023/08/15 05:16:19;;;;;;;17.87;14.67;;;23.10;99.90;;;;;;4828302;29;20633;-94
2023/08/15 05:18:44;;;;;;;17.87;12.60;;;23.20;99.90;;;;;;4840019;29;20593;-94
2023/08/15 05:21:10;;;;;;;14.20;12.87;;;23.20;99.90;;;;;;4832227;29;20740;-95
2023/08/15 05:23:36;;;;;;;14.13;12.63;;;23.30;99.90;;;;;;4843795;29;20187;-93
2023/08/15 05:26:02;;;;;;;13.77;12.37;;;23.40;99.90;;;;;;4844902;29;20591;-94
2023/08/15 05:28:27;;;;;;;13.10;11.80;;;23.40;99.90;;;;;;4838592;29;20207;-94
2023/08/15 05:30:53;;;;;;;15.30;11.90;;;23.50;99.90;;;;;;4833697;29;20447;-92
2023/08/15 05:33:19;;;;;;;20.77;12.97;;;23.60;99.90;;;;;;4823634;29;20611;-95
2023/08/15 05:35:45;;;;;;;14.20;12.90;;;23.60;99.90;;;;;;4816942;29;20475;-95
2023/08/15 05:38:11;;;;;;;18.33;12.07;;;23.70;99.90;;;;;;4816525;29;20249;-94
2023/08/15 05:40:38;;;;;;;13.63;12.53;;;23.70;99.90;;;;;;4827751;29;20206;-94
2023/08/15 05:43:04;;;;;;;14.13;12.93;;;23.80;99.90;;;;;;4832398;29;20186;-93
2023/08/15 05:45:29;;;;;;;14.63;12.13;;;23.90;99.90;;;;;;4835826;29;20455;-95
2023/08/15 05:47:55;;;;;;;13.00;11.60;;;23.90;99.90;;;;;;4834519;29;21035;-95
2023/08/15 05:50:21;;;;;;;14.30;12.63;;;24.00;99.90;;;;;;4822923;29;20242;-95
2023/08/15 05:52:47;;;;;;;14.27;12.77;;;24.00;99.90;;;;;;4821024;29;20233;-95
2023/08/15 05:55:13;;;;;;;13.23;11.93;;;24.10;99.90;;;;;;4816686;29;20244;-95
2023/08/15 05:57:38;;;;;;;14.60;12.97;;;24.10;99.90;;;;;;4816619;29;20201;-94
2023/08/15 06:00:05;;;;;;;12.40;11.20;;;24.20;99.90;;;;;;4818391;29;20445;-95
2023/08/15 06:02:35;;;;;;;16.47;12.80;;;24.20;99.90;;;;;;4825489;29;20228;-95
2023/08/15 06:05:02;;;;;;;14.60;13.20;;;24.20;99.90;;;;;;4827374;29;20466;-95
2023/08/15 06:07:27;;;;;;;15.63;12.83;;;24.20;99.90;;;;;;4832218;29;20444;-94
2023/08/15 06:09:53;;;;;;;13.47;12.10;;;24.30;99.90;;;;;;4831328;29;20471;-95
2023/08/15 06:12:21;;;;;;;13.03;11.60;;;24.30;99.90;;;;;;4826472;29;20231;-95
2023/08/15 06:14:47;;;;;;;14.43;12.93;;;24.40;99.90;;;;;;4830390;29;20280;-94
2023/08/15 06:17:13;;;;;;;15.00;13.40;;;24.40;99.90;;;;;;4835242;29;20491;-94
2023/08/15 06:19:39;;;;;;;14.27;13.03;;;24.40;99.90;;;;;;4831068;29;20548;-94
2023/08/15 06:22:06;;;;;;;14.33;12.83;;;24.40;99.90;;;;;;4832916;29;20199;-96
2023/08/15 06:24:32;;;;;;;15.47;13.30;;;24.40;99.90;;;;;;4822307;29;20540;-95
2023/08/15 06:26:57;;;;;;;17.53;12.53;;;24.40;99.90;;;;;;4830253;29;20811;-95
2023/08/15 06:29:25;;;;;;;19.50;13.30;;;24.50;99.90;;;;;;4830328;29;20721;-95
2023/08/15 06:31:52;;;;;;;17.80;13.10;;;24.60;99.90;;;;;;4853762;29;20229;-94
2023/08/15 06:34:18;;;;;;;16.40;13.80;;;24.60;99.90;;;;;;4824244;29;20436;-95
2023/08/15 06:36:44;;;;;;;20.73;13.07;;;24.70;99.90;;;;;;4856257;29;20459;-95
2023/08/15 06:39:12;;;;;;;13.93;12.47;;;24.60;99.90;;;;;;4861999;29;20439;-95
2023/08/15 06:41:38;;;;;;;14.90;12.67;;;24.70;99.90;;;;;;4834566;29;20200;-93
2023/08/15 06:44:04;;;;;;;15.20;13.70;;;24.80;99.90;;;;;;4832692;29;20428;-93
2023/08/15 06:46:30;;;;;;;13.60;12.40;;;24.90;99.90;;;;;;4830855;29;20296;-93
2023/08/15 06:48:55;;;;;;;22.13;14.53;;;25.00;99.90;;;;;;4834386;29;20440;-94
2023/08/15 06:51:21;;;;;;;13.83;12.63;;;25.00;99.90;;;;;;4834004;29;20624;-93
2023/08/15 06:53:52;;;;;;;15.47;14.07;;;25.10;99.90;;;;;;4836236;29;20194;-94
2023/08/15 06:56:18;;;;;;;13.43;12.23;;;25.20;99.90;;;;;;4835816;29;20687;-93
2023/08/15 06:58:44;;;;;;;14.23;12.87;;;25.30;99.90;;;;;;4837219;29;20432;-93
2023/08/15 07:01:12;;;;;;;14.83;13.33;;;25.40;99.90;;;;;;4837374;29;20208;-94
2023/08/15 07:03:38;;;;;;;18.03;12.30;;;25.40;99.90;;;;;;4836010;29;20272;-95
2023/08/15 07:06:05;;;;;;;13.30;12.00;;;25.60;99.90;;;;;;4840974;29;20453;-96
2023/08/15 07:08:35;;;;;;;13.20;11.90;;;25.70;99.90;;;;;;4846278;29;21214;-96
2023/08/15 07:11:01;;;;;;;13.20;11.90;;;25.80;99.90;;;;;;4846833;29;20487;-95
2023/08/15 07:13:32;;;;;;;14.10;12.67;;;25.90;99.90;;;;;;4839757;29;20842;-96
2023/08/15 07:16:00;;;;;;;12.60;11.30;;;26.00;99.90;;;;;;4847998;29;20934;-96
2023/08/15 07:18:29;;;;;;;12.90;11.60;;;26.10;99.90;;;;;;4850034;29;20456;-95
2023/08/15 07:20:55;;;;;;;15.47;11.50;;;26.30;99.90;;;;;;4840285;29;20453;-96
2023/08/15 07:23:25;;;;;;;12.70;11.53;;;26.40;99.90;;;;;;4840294;29;20512;-95
2023/08/15 07:25:51;;;;;;;12.67;11.57;;;26.40;99.90;;;;;;4836529;29;20953;-95
2023/08/15 07:28:20;;;;;;;13.27;12.07;;;26.60;99.90;;;;;;4864112;29;20478;-95
2023/08/15 07:30:48;;;;;;;14.07;12.57;;;26.60;99.90;;;;;;4840541;29;20468;-95
2023/08/15 07:33:15;;;;;;;14.80;13.27;;;26.70;99.90;;;;;;4840009;29;20452;-95
2023/08/15 07:35:41;;;;;;;13.53;12.33;;;26.80;99.90;;;;;;4850629;29;20475;-96
2023/08/15 07:38:08;;;;;;;14.00;12.60;;;26.90;99.90;;;;;;4838482;29;20424;-95
2023/08/15 07:40:34;;;;;;;14.20;12.57;;;27.00;99.90;;;;;;4842343;29;20475;-95
2023/08/15 07:43:01;;;;;;;14.97;13.57;;;27.10;99.90;;;;;;4844723;29;20424;-96
2023/08/15 07:45:28;;;;;;;15.07;12.50;;;27.20;99.90;;;;;;4841563;29;20769;-96
2023/08/15 07:47:57;;;;;;;15.50;12.83;;;27.20;99.90;;;;;;4841401;29;20421;-95
2023/08/15 07:50:26;;;;;;;16.63;13.90;;;27.40;99.90;;;;;;4842569;29;20861;-94
2023/08/15 07:52:53;;;;;;;16.67;13.10;;;27.50;99.90;;;;;;4838311;29;20481;-96
2023/08/15 07:55:21;;;;;;;12.87;11.47;;;27.60;99.90;;;;;;4835757;29;20478;-96
2023/08/15 07:57:47;;;;;;;12.37;11.17;;;27.80;99.90;;;;;;4838816;29;20454;-96
2023/08/15 08:00:45;;;;;;;;;;;;;;;;;;;;;
2023/08/15 08:03:12;;;;;;;12.60;11.40;;;28.00;99.90;;;;;;4839991;29;20536;-96
2023/08/15 08:05:41;;;;;;;12.43;11.30;;;28.20;99.90;;;;;;4833410;29;20642;-96
2023/08/15 08:08:12;;;;;;;14.87;11.80;;;28.30;99.90;;;;;;4823343;29;20385;-95
2023/08/15 08:10:41;;;;;;;9.60;8.77;;;28.50;99.90;;;;;;4845485;29;20460;-95
2023/08/15 08:13:11;;;;;;;8.73;7.93;;;28.60;99.90;;;;;;4842575;29;20583;-96
2023/08/15 08:15:48;;;;;;;8.93;8.00;;;28.70;99.90;;;;;;4843777;29;20449;-96
2023/08/15 08:18:16;;;;;;;9.03;7.87;;;28.90;99.90;;;;;;4840361;29;20464;-96
2023/08/15 08:20:47;;;;;;;8.87;7.43;;;29.10;99.90;;;;;;4841854;29;20468;-96
2023/08/15 08:23:24;;;;;;;8.57;7.80;;;29.20;99.90;;;;;;4833243;29;20457;-96
2023/08/15 08:25:52;;;;;;;8.43;7.03;;;29.40;99.90;;;;;;4831654;29;20687;-96
2023/08/15 08:28:18;;;;;;;9.70;7.57;;;29.50;99.90;;;;;;4842799;29;20461;-96
2023/08/15 08:30:44;;;;;;;9.33;7.47;;;29.70;99.70;;;;;;4844523;29;20444;-96
2023/08/15 08:33:12;;;;;;;11.20;7.37;;;29.80;99.80;;;;;;4835207;29;20749;-96
2023/08/15 08:35:38;;;;;;;8.67;7.83;;;29.90;99.90;;;;;;4839032;29;20467;-96
2023/08/15 08:38:07;;;;;;;7.77;7.07;;;30.00;99.00;;;;;;4847375;29;20479;-96
2023/08/15 08:40:39;;;;;;;7.10;6.60;;;30.20;99.00;;;;;;4835967;29;20211;-96
2023/08/15 08:43:09;;;;;;;7.17;6.07;;;30.30;98.80;;;;;;4845411;29;20455;-96
2023/08/15 08:45:45;;;;;;;7.70;7.00;;;30.40;97.50;;;;;;4843144;29;20461;-96
2023/08/15 08:48:19;;;;;;;8.73;6.60;;;30.50;96.90;;;;;;4847251;29;20463;-95
2023/08/15 08:50:46;;;;;;;9.10;6.30;;;30.60;97.00;;;;;;4851134;29;20516;-96
2023/08/15 08:53:14;;;;;;;6.90;6.20;;;30.60;96.30;;;;;;4841677;29;20707;-96
2023/08/15 08:55:46;;;;;;;6.77;6.10;;;30.80;95.70;;;;;;4858484;29;20711;-96
2023/08/15 08:58:16;;;;;;;7.43;6.83;;;30.80;95.40;;;;;;4839583;29;20730;-96
2023/08/15 09:00:43;;;;;;;9.20;7.07;;;31.00;95.70;;;;;;4836369;29;20913;-96
2023/08/15 09:03:12;;;;;;;10.00;7.00;;;31.10;95.20;;;;;;4841375;29;20958;-96
2023/08/15 09:05:43;;;;;;;8.00;6.47;;;31.20;95.40;;;;;;4842520;29;20488;-96
2023/08/15 09:08:17;;;;;;;7.27;6.57;;;31.30;94.80;;;;;;4843953;29;20455;-96
2023/08/15 09:10:46;;;;;;;7.30;6.60;;;31.40;94.80;;;;;;4843650;29;20490;-96
2023/08/15 09:13:25;;;;;;;7.43;5.70;;;31.50;94.30;;;;;;4846514;29;20517;-96
2023/08/15 09:15:56;;;;;;;6.40;5.83;;;31.70;93.70;;;;;;4813231;29;20467;-96
2023/08/15 09:18:23;;;;;;;6.40;5.90;;;31.70;93.90;;;;;;4825184;29;20475;-96
2023/08/15 09:20:52;;;;;;;6.77;6.17;;;31.80;92.70;;;;;;4824485;29;20478;-96
2023/08/15 09:23:18;;;;;;;7.07;6.47;;;31.80;93.00;;;;;;4827816;29;20453;-96
2023/08/15 09:25:56;;;;;;;7.40;6.10;;;31.70;93.50;;;;;;4825930;29;20444;-96
2023/08/15 09:28:27;;;;;;;7.07;6.37;;;31.70;93.00;;;;;;4821608;29;20828;-96
2023/08/15 09:30:53;;;;;;;7.37;5.63;;;31.70;93.00;;;;;;4815742;29;20464;-96
2023/08/15 09:33:19;;;;;;;7.37;6.20;;;31.60;93.10;;;;;;4825909;29;20470;-96
2023/08/15 09:35:45;;;;;;;9.17;6.73;;;31.50;92.90;;;;;;4834136;29;20461;-96
2023/08/15 09:38:11;;;;;;;9.60;6.90;;;31.50;92.70;;;;;;4821786;29;20669;-96
2023/08/15 09:40:40;;;;;;;7.40;6.60;;;31.40;92.60;;;;;;4827958;29;20232;-96
2023/08/15 09:43:08;;;;;;;8.10;6.47;;;31.40;92.50;;;;;;4816026;29;20461;-96
2023/08/15 09:45:39;;;;;;;8.37;5.90;;;31.40;92.60;;;;;;4841761;29;20441;-96
2023/08/15 09:48:05;;;;;;;9.07;5.37;;;31.30;92.30;;;;;;4837094;29;20544;-95
2023/08/15 09:50:36;;;;;;;6.70;6.10;;;31.30;91.70;;;;;;4822430;29;20473;-96
2023/08/15 09:53:04;;;;;;;7.03;6.50;;;31.20;92.30;;;;;;4826998;29;20824;-96
2023/08/15 09:55:33;;;;;;;6.80;6.20;;;31.20;92.40;;;;;;4817231;29;20487;-96
2023/08/15 09:57:59;;;;;;;6.60;6.07;;;31.20;92.00;;;;;;4832269;29;20655;-96
2023/08/15 10:00:26;;;;;;;6.23;5.73;;;31.20;91.70;;;;;;4806232;29;20516;-96
2023/08/15 10:03:05;;;;;;;7.00;6.30;;;31.10;92.00;;;;;;4791310;29;20450;-96
2023/08/15 10:05:33;;;;;;;9.43;6.90;;;31.00;91.60;;;;;;4805255;29;20498;-96
2023/08/15 10:07:59;;;;;;;7.30;6.70;;;31.00;92.00;;;;;;4819440;29;20963;-96
2023/08/15 10:10:27;;;;;;;6.57;5.83;;;30.90;92.20;;;;;;4824092;29;20964;-96
2023/08/15 10:12:54;;;;;;;9.20;6.63;;;30.90;92.20;;;;;;4846461;29;20790;-96
2023/08/15 10:15:26;;;;;;;6.93;6.30;;;30.80;92.80;;;;;;4828668;29;20515;-96
2023/08/15 10:17:55;;;;;;;7.10;6.40;;;30.80;93.10;;;;;;4825372;29;20527;-96
2023/08/15 10:20:25;;;;;;;7.43;6.60;;;30.80;93.40;;;;;;4829814;29;20441;-96
2023/08/15 10:23:00;;;;;;;6.63;6.13;;;30.70;93.40;;;;;;4836831;29;20437;-96
2023/08/15 10:25:36;;;;;;;8.97;6.63;;;30.70;93.20;;;;;;4829828;29;20776;-96
2023/08/15 10:28:12;;;;;;;6.57;5.97;;;30.70;93.20;;;;;;4833515;29;20448;-96
2023/08/15 10:30:57;;;;;;;6.53;5.93;;;30.60;93.40;;;;;;4830686;29;20475;-95
2023/08/15 10:33:31;;;;;;;7.07;6.47;;;30.70;93.40;;;;;;4834736;29;20530;-96
2023/08/15 10:36:08;;;;;;;7.30;6.53;;;30.70;93.60;;;;;;4833272;29;20469;-96
2023/08/15 10:38:47;;;;;;;9.37;7.20;;;30.60;93.00;;;;;;4846920;29;20426;-96
2023/08/15 10:41:18;;;;;;;6.53;5.90;;;30.70;92.80;;;;;;4854538;29;20572;-95
2023/08/15 10:44:07;;;;;;;7.43;5.80;;;30.70;92.90;;;;;;4838577;29;20420;-96
2023/08/15 10:46:40;;;;;;;7.13;6.00;;;30.80;92.20;;;;;;4850340;29;20457;-96
2023/08/15 10:49:13;;;;;;;6.40;5.83;;;30.80;91.70;;;;;;4837491;29;20477;-96
2023/08/15 10:54:19;;;;;;;7.57;6.63;;;30.90;92.00;;;;;;4812256;29;21231;-84
2023/08/15 10:56:46;;;;;;;6.97;6.47;;;30.90;91.90;;;;;;4812741;29;20458;-83
2023/08/15 10:59:14;;;;;;;6.70;6.07;;;31.00;91.80;;;;;;4808521;29;20190;-84
2023/08/15 11:01:41;;;;;;;5.60;5.10;;;31.00;91.60;;;;;;4811924;29;20609;-83
2023/08/15 11:04:10;;;;;;;7.80;5.90;;;31.10;91.20;;;;;;4812342;29;20501;-79
2023/08/15 11:06:47;;;;;;;5.70;5.20;;;31.10;91.30;;;;;;4813283;29;20453;-79
2023/08/15 11:09:13;;;;;;;6.73;5.13;;;31.10;91.30;;;;;;4816730;29;20444;-83
2023/08/15 11:11:39;;;;;;;6.17;5.67;;;31.10;90.80;;;;;;4799646;29;20522;-83
2023/08/15 11:14:17;;;;;;;5.80;5.40;;;31.10;90.80;;;;;;4813009;29;20442;-79
2023/08/15 11:16:44;;;;;;;6.10;5.63;;;31.10;90.70;;;;;;4811975;29;20189;-79
2023/08/15 11:19:10;;;;;;;6.53;5.93;;;31.10;90.80;;;;;;4812984;29;20492;-83
2023/08/15 11:21:36;;;;;;;9.40;5.60;;;31.10;90.90;;;;;;4811469;29;20551;-78
2023/08/15 11:24:02;;;;;;;6.00;5.50;;;31.10;90.50;;;;;;4795454;29;20697;-83
2023/08/15 11:26:28;;;;;;;7.10;6.20;;;31.10;90.60;;;;;;4798645;29;20465;-83
2023/08/15 11:28:54;;;;;;;5.70;5.27;;;31.10;90.60;;;;;;4803716;29;20433;-79
2023/08/15 11:31:20;;;;;;;6.70;6.10;;;31.10;90.50;;;;;;4810511;29;20489;-78
2023/08/15 11:33:50;;;;;;;7.50;6.30;;;31.10;90.50;;;;;;4812378;29;20548;-83
2023/08/15 11:36:16;;;;;;;8.13;5.57;;;31.10;90.60;;;;;;4802452;29;20697;-83
2023/08/15 11:38:42;;;;;;;6.43;5.83;;;31.10;90.90;;;;;;4792152;29;21058;-80
2023/08/15 11:41:07;;;;;;;6.70;6.10;;;31.10;90.70;;;;;;4810800;29;20693;-78
2023/08/15 11:43:34;;;;;;;6.63;6.03;;;31.10;91.00;;;;;;4810926;29;20700;-82
2023/08/15 11:46:04;;;;;;;7.00;6.37;;;31.10;91.10;;;;;;4812351;29;20209;-79
2023/08/15 11:48:31;;;;;;;6.80;6.10;;;31.10;91.10;;;;;;4802977;29;20441;-82
2023/08/15 11:50:57;;;;;;;6.20;5.53;;;31.10;91.00;;;;;;4800013;29;20644;-83
2023/08/15 11:53:23;;;;;;;6.60;5.83;;;31.10;91.20;;;;;;4799073;29;20506;-84
2023/08/15 11:55:48;;;;;;;6.50;5.90;;;31.10;91.10;;;;;;4810236;29;20465;-82
2023/08/15 11:58:32;;;;;;;5.93;5.43;;;31.10;91.10;;;;;;4814242;29;20247;-83
2023/08/15 12:01:11;;;;;;;6.67;5.83;;;31.20;91.00;;;;;;4811133;29;20209;-83
2023/08/15 12:03:38;;;;;;;7.20;6.27;;;31.10;90.90;;;;;;4813214;29;20951;-83
2023/08/15 12:06:09;;;;;;;8.97;6.60;;;31.10;90.80;;;;;;4811501;29;21003;-83
2023/08/15 12:08:34;;;;;;;7.77;5.60;;;31.10;91.00;;;;;;4806354;29;20498;-83
2023/08/15 12:11:05;;;;;;;11.17;6.67;;;31.00;91.10;;;;;;4800857;29;20519;-78
2023/08/15 12:13:36;;;;;;;9.53;5.90;;;31.00;91.40;;;;;;4803289;29;20189;-78
2023/08/15 12:16:03;;;;;;;6.77;6.07;;;31.00;91.30;;;;;;4804206;29;20461;-83
2023/08/15 12:18:30;;;;;;;6.77;6.17;;;31.00;91.20;;;;;;4808175;29;20862;-79
2023/08/15 12:20:56;;;;;;;6.00;5.50;;;31.00;90.90;;;;;;4805978;29;20651;-83
2023/08/15 12:23:22;;;;;;;7.10;5.97;;;31.00;91.10;;;;;;4823465;29;20791;-79
2023/08/15 12:25:47;;;;;;;5.80;5.40;;;31.00;91.20;;;;;;4806728;29;21282;-80
2023/08/15 12:28:13;;;;;;;5.60;5.20;;;31.10;91.30;;;;;;4803931;29;20590;-80
2023/08/15 12:30:39;;;;;;;7.80;5.80;;;31.00;91.30;;;;;;4806539;29;20209;-83
2023/08/15 12:33:05;;;;;;;7.77;6.10;;;31.00;91.40;;;;;;4808874;29;20767;-79
2023/08/15 12:35:32;;;;;;;6.83;6.23;;;31.00;91.30;;;;;;4806479;29;20744;-79
2023/08/15 12:37:58;;;;;;;6.23;5.73;;;31.10;91.00;;;;;;4806898;29;20445;-84
2023/08/15 12:40:27;;;;;;;6.53;6.03;;;31.10;91.00;;;;;;4810872;29;20456;-83
2023/08/15 12:42:56;;;;;;;5.90;5.50;;;31.10;91.40;;;;;;4811255;29;20438;-80